createdAt,value
2019-03-24T00:00:59.963Z,30.37
2019-03-24T00:03:28.390Z,28.67
2019-03-24T00:05:56.998Z,26.20
2019-03-24T00:08:25.595Z,24.13
2019-03-24T00:10:54.127Z,32.30
2019-03-24T00:13:24.876Z,33.47
2019-03-24T00:15:53.262Z,28.63
2019-03-24T00:18:22.115Z,40.47
2019-03-24T00:20:50.773Z,24.30
2019-03-24T00:23:19.289Z,29.47
2019-03-24T00:25:47.723Z,33.73
2019-03-24T00:28:16.189Z,34.03
2019-03-24T00:30:44.631Z,24.37
2019-03-24T00:33:13.111Z,36.50
2019-03-24T00:35:41.635Z,29.40
2019-03-24T00:38:10.114Z,34.00
2019-03-24T00:40:38.551Z,29.13
2019-03-24T00:43:07.697Z,27.13
2019-03-24T00:45:37.120Z,38.77
2019-03-24T00:48:05.908Z,26.30
2019-03-24T00:50:53.735Z,27.93
2019-03-24T00:53:22.180Z,35.17
2019-03-24T00:55:50.727Z,29.73
2019-03-24T00:58:19.233Z,36.90
2019-03-24T01:00:50.402Z,30.13
2019-03-24T01:03:19.182Z,26.70
2019-03-24T01:05:48.108Z,34.70
2019-03-24T01:08:16.615Z,32.33
2019-03-24T01:10:45.233Z,22.97
2019-03-24T01:13:14.523Z,27.23
2019-03-24T01:15:47.624Z,31.30
2019-03-24T01:18:13.606Z,29.80
2019-03-24T01:20:42.143Z,26.97
2019-03-24T01:23:10.626Z,32.57
2019-03-24T01:25:39.252Z,42.17
2019-03-24T01:28:07.931Z,31.93
2019-03-24T01:30:55.747Z,36.07
2019-03-24T01:33:24.184Z,32.73
2019-03-24T01:35:52.643Z,33.13
2019-03-24T01:38:21.114Z,30.97
2019-03-24T01:41:08.909Z,40.40
2019-03-24T01:43:37.442Z,31.40
2019-03-24T01:46:05.892Z,31.77
2019-03-24T01:48:34.429Z,31.53
2019-03-24T01:51:02.972Z,31.27
2019-03-24T01:53:31.415Z,26.27
2019-03-24T01:55:59.882Z,28.07
2019-03-24T01:58:28.321Z,30.33
2019-03-24T02:00:56.940Z,43.70
2019-03-24T02:03:25.470Z,36.40
2019-03-24T02:05:53.926Z,35.87
2019-03-24T02:08:22.427Z,41.23
2019-03-24T02:10:50.909Z,43.03
2019-03-24T02:13:19.345Z,37.87
2019-03-24T02:15:47.776Z,34.40
2019-03-24T02:18:16.242Z,42.17
2019-03-24T02:20:44.715Z,33.70
2019-03-24T02:23:13.148Z,33.90
2019-03-24T02:25:41.606Z,39.33
2019-03-24T02:28:10.047Z,37.07
2019-03-24T02:30:42.034Z,38.77
2019-03-24T02:33:10.572Z,43.87
2019-03-24T02:35:39.023Z,37.53
2019-03-24T02:38:07.578Z,34.67
2019-03-24T02:40:36.163Z,33.00
2019-03-24T02:43:04.630Z,29.07
2019-03-24T02:45:33.139Z,27.90
2019-03-24T02:48:01.621Z,35.80
2019-03-24T02:50:30.089Z,33.63
2019-03-24T02:52:58.536Z,40.10
2019-03-24T02:55:27.003Z,37.13
2019-03-24T02:57:55.445Z,38.17
2019-03-24T03:00:24.276Z,46.07
2019-03-24T03:02:52.749Z,40.73
2019-03-24T03:05:21.223Z,38.97
2019-03-24T03:07:49.697Z,42.17
2019-03-24T03:10:18.484Z,47.73
2019-03-24T03:12:47.874Z,37.83
2019-03-24T03:15:17.311Z,42.53
2019-03-24T03:17:45.871Z,41.80
2019-03-24T03:20:14.613Z,46.07
2019-03-24T03:22:43.085Z,40.47
2019-03-24T03:25:11.769Z,42.17
2019-03-24T03:27:40.246Z,43.67
2019-03-24T03:30:09.339Z,47.97
2019-03-24T03:32:37.892Z,47.57
2019-03-24T03:35:09.217Z,47.43
2019-03-24T03:37:37.757Z,46.03
2019-03-24T03:40:07.401Z,40.33
2019-03-24T03:42:36.364Z,37.60
2019-03-24T03:45:06.088Z,37.60
2019-03-24T03:47:34.628Z,40.97
2019-03-24T03:50:04.014Z,37.47
2019-03-24T03:52:32.475Z,41.07
2019-03-24T03:55:00.908Z,31.30
2019-03-24T03:57:29.378Z,37.20
2019-03-24T03:59:57.854Z,40.37
2019-03-24T04:02:26.369Z,40.63
2019-03-24T04:04:54.976Z,48.23
2019-03-24T04:07:23.439Z,50.80
2019-03-24T04:09:51.895Z,48.27
2019-03-24T04:12:20.412Z,45.07
2019-03-24T04:14:48.885Z,43.87
2019-03-24T04:17:18.143Z,40.80
2019-03-24T04:19:46.667Z,46.70
2019-03-24T04:22:15.106Z,45.33
2019-03-24T04:24:43.588Z,45.03
2019-03-24T04:27:12.028Z,46.87
2019-03-24T04:29:40.506Z,49.67
2019-03-24T04:32:09.030Z,48.73
2019-03-24T04:34:37.567Z,58.13
2019-03-24T04:37:06.032Z,47.83
2019-03-24T04:39:34.513Z,52.83
2019-03-24T04:42:02.952Z,39.73
2019-03-24T04:44:31.562Z,46.00
2019-03-24T04:47:00.027Z,50.30
2019-03-24T04:49:28.502Z,35.77
2019-03-24T04:51:56.947Z,45.17
2019-03-24T04:54:25.393Z,49.57
2019-03-24T04:56:53.940Z,49.43
2019-03-24T04:59:22.401Z,45.33
2019-03-24T05:01:50.866Z,51.83
2019-03-24T05:04:19.337Z,36.80
2019-03-24T05:06:48.038Z,35.53
2019-03-24T05:09:17.444Z,35.03
2019-03-24T05:11:45.880Z,36.00
2019-03-24T05:14:14.343Z,34.63
2019-03-24T05:16:43.185Z,39.57
2019-03-24T05:19:11.646Z,40.57
2019-03-24T05:21:40.949Z,29.40
2019-03-24T05:24:09.407Z,41.13
2019-03-24T05:26:37.846Z,35.40
2019-03-24T05:29:06.311Z,41.67
2019-03-24T05:31:34.763Z,43.63
2019-03-24T05:34:03.227Z,36.60
2019-03-24T05:36:51.004Z,30.33
2019-03-24T05:39:19.474Z,35.33
2019-03-24T05:41:47.911Z,35.10
2019-03-24T05:44:16.373Z,36.47
2019-03-24T05:46:44.923Z,32.20
2019-03-24T05:49:13.384Z,41.10
2019-03-24T05:51:41.828Z,36.13
2019-03-24T05:54:10.307Z,33.73
2019-03-24T05:56:38.740Z,38.10
2019-03-24T05:59:07.213Z,30.90
2019-03-24T06:01:35.671Z,35.53
2019-03-24T06:04:04.282Z,36.47
2019-03-24T06:06:32.780Z,37.67
2019-03-24T06:09:01.327Z,39.40
2019-03-24T06:11:29.765Z,36.73
2019-03-24T06:13:58.201Z,31.63
2019-03-24T06:16:26.671Z,30.73
2019-03-24T06:18:55.140Z,33.43
2019-03-24T06:21:23.603Z,42.50
2019-03-24T06:23:52.038Z,37.77
2019-03-24T06:26:20.511Z,35.43
2019-03-24T06:28:48.945Z,33.30
2019-03-24T06:31:17.414Z,35.17
2019-03-24T06:33:45.855Z,42.37
2019-03-24T06:36:14.315Z,37.13
2019-03-24T06:38:42.763Z,43.67
2019-03-24T06:41:11.295Z,37.13
2019-03-24T06:43:39.736Z,37.57
2019-03-24T06:46:08.208Z,39.57
2019-03-24T06:48:36.646Z,46.87
2019-03-24T06:51:05.195Z,39.07
2019-03-24T06:53:33.667Z,37.67
2019-03-24T06:56:02.137Z,32.90
2019-03-24T06:58:30.576Z,42.50
2019-03-24T07:00:59.039Z,42.90
2019-03-24T07:03:27.511Z,34.80
2019-03-24T07:05:55.946Z,46.60
2019-03-24T07:08:24.414Z,41.37
2019-03-24T07:10:52.892Z,33.23
2019-03-24T07:13:21.332Z,35.17
2019-03-24T07:15:49.762Z,37.87
2019-03-24T07:18:18.238Z,38.90
2019-03-24T07:20:46.671Z,35.57
2019-03-24T07:23:15.147Z,30.93
2019-03-24T07:25:43.611Z,39.87
2019-03-24T07:28:12.053Z,36.57
2019-03-24T07:30:40.525Z,35.63
2019-03-24T07:33:08.968Z,34.20
2019-03-24T07:35:37.432Z,40.27
2019-03-24T07:38:05.987Z,35.40
2019-03-24T07:40:34.465Z,36.80
2019-03-24T07:43:02.903Z,48.83
2019-03-24T07:45:31.367Z,36.60
2019-03-24T07:47:59.797Z,37.43
2019-03-24T07:50:28.270Z,34.87
2019-03-24T07:52:56.721Z,27.10
2019-03-24T07:55:25.187Z,27.20
2019-03-24T07:57:53.651Z,34.33
2019-03-24T08:00:36.203Z,32.87
2019-03-24T08:03:04.777Z,30.47
2019-03-24T08:05:33.326Z,34.43
2019-03-24T08:08:01.769Z,34.47
2019-03-24T08:10:30.205Z,30.83
2019-03-24T08:12:59.088Z,31.13
2019-03-24T08:15:27.619Z,32.83
2019-03-24T08:17:56.069Z,34.90
2019-03-24T08:20:24.530Z,29.60
2019-03-24T08:22:52.968Z,26.37
2019-03-24T08:25:21.406Z,28.77
2019-03-24T08:27:49.953Z,28.83
2019-03-24T08:30:33.086Z,33.80
2019-03-24T08:33:01.574Z,32.97
2019-03-24T08:35:30.031Z,30.63
2019-03-24T08:37:58.519Z,27.57
2019-03-24T08:40:27.054Z,25.20
2019-03-24T08:42:55.553Z,30.93
2019-03-24T08:45:28.468Z,37.17
2019-03-24T08:47:58.168Z,29.47
2019-03-24T08:50:26.710Z,27.23
2019-03-24T08:52:55.307Z,31.80
2019-03-24T08:55:23.919Z,31.03
2019-03-24T08:57:52.455Z,35.47
2019-03-24T09:00:30.118Z,32.40
2019-03-24T09:02:51.219Z,26.23
2019-03-24T09:05:19.691Z,30.83
2019-03-24T09:07:49.694Z,28.70
2019-03-24T09:10:18.304Z,28.83
2019-03-24T09:12:46.794Z,28.60
2019-03-24T09:15:16.075Z,30.43
2019-03-24T09:17:46.322Z,24.77
2019-03-24T09:20:14.974Z,27.87
2019-03-24T09:22:43.436Z,29.20
2019-03-24T09:25:12.540Z,26.20
2019-03-24T09:27:41.139Z,27.23
2019-03-24T09:30:12.669Z,28.23
2019-03-24T09:32:41.130Z,22.47
2019-03-24T09:35:09.763Z,23.83
2019-03-24T09:37:38.220Z,24.57
2019-03-24T09:40:09.283Z,23.97
2019-03-24T09:42:37.923Z,27.17
2019-03-24T09:45:06.499Z,21.57
2019-03-24T09:47:36.700Z,27.37
2019-03-24T09:50:08.108Z,26.70
2019-03-24T09:52:36.860Z,27.57
2019-03-24T09:55:06.890Z,27.03
2019-03-24T09:57:35.376Z,27.00
2019-03-24T10:00:05.288Z,24.40
2019-03-24T10:02:33.835Z,26.90
2019-03-24T10:05:02.296Z,24.40
2019-03-24T10:07:30.855Z,25.03
2019-03-24T10:09:59.338Z,21.07
2019-03-24T10:12:27.775Z,23.07
2019-03-24T10:14:56.259Z,21.40
2019-03-24T10:17:24.729Z,22.70
2019-03-24T10:19:53.175Z,21.03
2019-03-24T10:22:21.643Z,26.77
2019-03-24T10:24:50.112Z,21.70
2019-03-24T10:27:18.559Z,19.97
2019-03-24T10:29:47.016Z,22.00
2019-03-24T10:32:15.478Z,20.70
2019-03-24T10:34:43.957Z,23.40
2019-03-24T10:37:12.403Z,20.33
2019-03-24T10:39:40.888Z,25.57
2019-03-24T10:42:09.381Z,19.60
2019-03-24T10:44:40.280Z,22.77
2019-03-24T10:47:08.087Z,17.40
2019-03-24T10:49:36.567Z,24.17
2019-03-24T10:52:05.017Z,20.40
2019-03-24T10:54:33.551Z,18.03
2019-03-24T10:57:02.031Z,20.90
2019-03-24T10:59:30.467Z,23.37
2019-03-24T11:01:58.940Z,23.00
2019-03-24T11:04:27.392Z,17.33
2019-03-24T11:06:57.208Z,17.80
2019-03-24T11:09:25.743Z,19.60
2019-03-24T11:11:54.197Z,19.30
2019-03-24T11:14:22.669Z,16.83
2019-03-24T11:16:51.144Z,20.87
2019-03-24T11:19:19.640Z,21.40
2019-03-24T11:21:48.117Z,21.93
2019-03-24T11:24:16.590Z,25.47
2019-03-24T11:26:45.037Z,21.17
2019-03-24T11:29:13.475Z,18.73
2019-03-24T11:31:41.962Z,19.67
2019-03-24T11:34:10.406Z,22.03
2019-03-24T11:36:38.881Z,19.77
2019-03-24T11:39:07.822Z,19.93
2019-03-24T11:41:36.272Z,24.03
2019-03-24T11:44:04.923Z,23.03
2019-03-24T11:46:33.366Z,21.20
2019-03-24T11:49:01.842Z,22.53
2019-03-24T11:51:30.303Z,22.43
2019-03-24T11:53:58.788Z,22.60
2019-03-24T11:56:27.292Z,23.00
2019-03-24T11:58:55.850Z,22.97
2019-03-24T12:01:24.387Z,20.40
2019-03-24T12:03:52.833Z,20.13
2019-03-24T12:06:21.315Z,18.13
2019-03-24T12:08:49.759Z,19.30
2019-03-24T12:13:36.139Z,20.10
2019-03-24T12:16:04.639Z,20.00
2019-03-24T12:18:33.119Z,18.67
2019-03-24T12:21:01.597Z,20.07
2019-03-24T12:23:30.174Z,21.30
2019-03-24T12:25:58.653Z,19.20
2019-03-24T12:28:27.119Z,22.07
2019-03-24T12:30:55.563Z,18.20
2019-03-24T12:33:24.708Z,19.10
2019-03-24T12:35:53.320Z,20.33
2019-03-24T12:38:21.755Z,17.17
2019-03-24T12:42:29.212Z,12.07
2019-03-24T12:44:57.644Z,15.63
2019-03-24T12:47:26.119Z,19.70
2019-03-24T12:49:54.591Z,17.80
2019-03-24T12:52:23.041Z,19.30
2019-03-24T12:54:52.105Z,20.20
2019-03-24T12:57:20.587Z,18.93
2019-03-24T12:59:49.067Z,19.70
2019-03-24T13:02:17.521Z,15.00
2019-03-24T13:04:45.983Z,18.00
2019-03-24T13:07:14.495Z,17.80
2019-03-24T13:09:42.966Z,16.17
2019-03-24T13:12:11.414Z,14.43
2019-03-24T13:14:39.895Z,14.63
2019-03-24T13:17:08.411Z,17.03
2019-03-24T13:19:36.888Z,15.77
2019-03-24T13:22:05.411Z,15.03
2019-03-24T13:24:34.383Z,15.93
2019-03-24T13:27:02.882Z,13.43
2019-03-24T13:29:31.355Z,15.90
2019-03-24T13:31:59.803Z,11.37
2019-03-24T13:34:28.279Z,14.47
2019-03-24T13:36:56.798Z,12.60
2019-03-24T13:39:25.272Z,10.33
2019-03-24T13:41:53.721Z,12.57
2019-03-24T13:44:22.160Z,10.67
2019-03-24T13:46:50.690Z,9.63
2019-03-24T13:49:19.141Z,4.63
2019-03-24T13:51:47.616Z,10.03
2019-03-24T13:54:16.092Z,9.93
2019-03-24T13:56:44.707Z,10.93
2019-03-24T13:59:13.223Z,11.67
2019-03-24T14:01:41.705Z,12.90
2019-03-24T14:04:10.245Z,15.60
2019-03-24T14:06:38.711Z,13.47
2019-03-24T14:09:09.910Z,13.33
2019-03-24T14:11:38.378Z,15.27
2019-03-24T14:14:06.851Z,16.17
2019-03-24T14:16:35.358Z,12.87
2019-03-24T14:19:03.907Z,15.63
2019-03-24T14:21:32.338Z,11.33
2019-03-24T14:24:00.817Z,13.33
2019-03-24T14:26:29.257Z,17.00
2019-03-24T14:28:57.726Z,9.90
2019-03-24T14:31:26.172Z,11.73
2019-03-24T14:33:54.631Z,12.13
2019-03-24T14:36:23.119Z,9.57
2019-03-24T14:38:51.557Z,7.93
2019-03-24T14:41:20.577Z,12.70
2019-03-24T14:43:49.103Z,9.23
2019-03-24T14:46:17.566Z,9.17
2019-03-24T14:48:46.014Z,10.40
2019-03-24T14:51:14.499Z,10.53
2019-03-24T14:53:42.939Z,7.83
2019-03-24T14:56:11.388Z,9.10
2019-03-24T14:58:39.860Z,13.07
2019-03-24T15:01:08.300Z,11.90
2019-03-24T15:03:36.818Z,12.67
2019-03-24T15:06:05.362Z,13.53
2019-03-24T15:08:33.811Z,11.57
2019-03-24T15:11:02.295Z,11.33
2019-03-24T15:13:30.739Z,12.70
2019-03-24T15:15:59.195Z,10.33
2019-03-24T15:18:27.673Z,11.20
2019-03-24T15:21:05.233Z,11.93
2019-03-24T15:23:26.441Z,11.33
2019-03-24T15:25:54.907Z,9.30
2019-03-24T15:28:23.363Z,12.90
2019-03-24T15:30:51.848Z,12.47
2019-03-24T15:33:20.368Z,14.53
2019-03-24T15:35:48.838Z,15.10
2019-03-24T15:38:17.310Z,12.90
2019-03-24T15:40:45.793Z,15.03
2019-03-24T15:43:14.255Z,14.03
2019-03-24T15:45:42.805Z,13.43
2019-03-24T15:48:11.346Z,14.37
2019-03-24T15:50:39.810Z,17.17
2019-03-24T15:53:08.351Z,14.93
2019-03-24T15:55:36.794Z,13.67
2019-03-24T15:58:05.268Z,13.53
2019-03-24T16:00:41.901Z,18.60
2019-03-24T16:03:10.439Z,14.77
2019-03-24T16:05:38.927Z,16.40
2019-03-24T16:08:07.487Z,14.30
2019-03-24T16:10:35.995Z,16.93
2019-03-24T16:13:04.439Z,25.23
2019-03-24T16:15:32.971Z,16.50
2019-03-24T16:18:01.432Z,22.50
2019-03-24T16:20:29.906Z,17.47
2019-03-24T16:22:58.351Z,19.10
2019-03-24T16:25:26.841Z,21.70
2019-03-24T16:27:55.983Z,16.07
2019-03-24T16:30:24.434Z,15.07
2019-03-24T16:32:52.888Z,22.57
2019-03-24T16:35:21.359Z,24.53
2019-03-24T16:37:49.845Z,16.13
2019-03-24T16:40:18.296Z,16.17
2019-03-24T16:42:46.779Z,19.50
2019-03-24T16:45:15.324Z,23.63
2019-03-24T16:47:43.779Z,19.87
2019-03-24T16:50:12.326Z,18.07
2019-03-24T16:52:40.790Z,18.57
2019-03-24T16:55:12.157Z,18.87
2019-03-24T16:57:40.032Z,16.77
2019-03-24T17:00:08.916Z,17.83
2019-03-24T17:02:37.402Z,12.80
2019-03-24T17:05:07.555Z,18.43
2019-03-24T17:07:36.040Z,16.97
2019-03-24T17:10:06.419Z,14.53
2019-03-24T17:12:34.907Z,13.10
2019-03-24T17:15:04.790Z,15.60
2019-03-24T17:17:33.255Z,13.27
2019-03-24T17:20:01.718Z,13.20
2019-03-24T17:22:30.308Z,14.47
2019-03-24T17:24:58.757Z,15.17
2019-03-24T17:27:27.238Z,14.37
2019-03-24T17:29:55.719Z,11.00
2019-03-24T17:32:24.189Z,14.23
2019-03-24T17:34:52.634Z,14.43
2019-03-24T17:37:21.110Z,15.10
2019-03-24T17:39:49.623Z,16.23
2019-03-24T17:42:18.091Z,13.47
2019-03-24T17:44:46.571Z,15.43
2019-03-24T17:47:15.017Z,15.50
2019-03-24T17:49:43.551Z,16.43
2019-03-24T17:52:12.059Z,17.67
2019-03-24T17:54:40.543Z,20.57
2019-03-24T17:57:08.986Z,18.13
2019-03-24T17:59:37.450Z,19.93
2019-03-24T18:02:13.896Z,19.03
2019-03-24T18:04:36.174Z,20.23
2019-03-24T18:07:04.687Z,16.93
2019-03-24T18:09:33.150Z,18.20
2019-03-24T18:12:01.591Z,16.83
2019-03-24T18:14:30.078Z,17.00
2019-03-24T18:16:58.525Z,15.47
2019-03-24T18:19:26.958Z,16.07
2019-03-24T18:21:55.426Z,14.87
2019-03-24T18:24:23.862Z,15.07
2019-03-24T18:26:52.327Z,18.20
2019-03-24T18:29:20.812Z,19.43
2019-03-24T18:31:49.247Z,21.83
2019-03-24T18:34:17.719Z,18.27
2019-03-24T18:36:46.168Z,20.80
2019-03-24T18:39:14.646Z,25.07
2019-03-24T18:41:43.116Z,19.40
2019-03-24T18:44:11.575Z,15.43
2019-03-24T18:46:40.108Z,18.47
2019-03-24T18:49:08.569Z,19.67
2019-03-24T18:51:37.023Z,15.70
2019-03-24T18:54:05.490Z,17.30
2019-03-24T18:56:33.959Z,15.87
2019-03-24T18:59:02.420Z,18.70
2019-03-24T19:01:30.887Z,22.87
2019-03-24T19:03:59.332Z,17.87
2019-03-24T19:06:27.795Z,20.97
2019-03-24T19:08:56.230Z,19.23
2019-03-24T19:11:24.712Z,19.23
2019-03-24T19:13:53.192Z,18.60
2019-03-24T19:16:21.635Z,21.30
2019-03-24T19:18:50.099Z,23.90
2019-03-24T19:21:19.321Z,22.03
2019-03-24T19:23:47.954Z,18.87
2019-03-24T19:26:16.388Z,21.53
2019-03-24T19:28:44.848Z,19.93
2019-03-24T19:31:13.367Z,21.33
2019-03-24T19:33:42.407Z,14.17
2019-03-24T19:36:10.932Z,18.30
2019-03-24T19:38:41.596Z,18.73
2019-03-24T19:41:10.050Z,23.23
2019-03-24T19:43:39.867Z,25.30
2019-03-24T19:46:08.429Z,18.90
2019-03-24T19:48:36.975Z,23.07
2019-03-24T19:51:07.043Z,17.37
2019-03-24T19:53:35.754Z,19.40
2019-03-24T19:56:04.339Z,16.70
2019-03-24T19:58:32.809Z,18.83
2019-03-24T20:01:01.288Z,17.57
2019-03-24T20:03:29.762Z,16.47
2019-03-24T20:05:58.264Z,21.47
2019-03-24T20:08:26.728Z,23.27
2019-03-24T20:10:55.183Z,17.60
2019-03-24T20:13:23.620Z,22.83
2019-03-24T20:15:52.084Z,19.20
2019-03-24T20:18:20.548Z,21.07
2019-03-24T20:20:48.993Z,19.30
2019-03-24T20:23:17.446Z,15.37
2019-03-24T20:25:45.919Z,19.97
2019-03-24T20:28:14.394Z,20.47
2019-03-24T20:30:42.971Z,18.57
2019-03-24T20:33:11.410Z,13.80
2019-03-24T20:35:39.849Z,17.60
2019-03-24T20:38:08.310Z,14.70
2019-03-24T20:40:36.783Z,18.17
2019-03-24T20:43:05.319Z,20.50
2019-03-24T20:45:33.795Z,16.93
2019-03-24T20:48:02.234Z,18.33
2019-03-24T20:50:30.663Z,16.77
2019-03-24T20:53:05.698Z,19.13
2019-03-24T20:55:29.817Z,16.97
2019-03-24T20:57:58.296Z,16.17
2019-03-24T21:00:37.258Z,16.17
2019-03-24T21:03:06.847Z,17.30
2019-03-24T21:05:35.459Z,14.90
2019-03-24T21:08:04.072Z,12.57
2019-03-24T21:10:32.535Z,19.33
2019-03-24T21:13:00.974Z,23.87
2019-03-24T21:15:29.443Z,16.57
2019-03-24T21:17:57.892Z,15.33
2019-03-24T21:20:26.355Z,14.77
2019-03-24T21:22:54.791Z,19.63
2019-03-24T21:25:23.242Z,20.40
2019-03-24T21:27:51.707Z,24.17
2019-03-24T21:30:40.189Z,17.17
2019-03-24T21:33:08.697Z,17.57
2019-03-24T21:35:37.172Z,18.13
2019-03-24T21:38:05.778Z,20.70
2019-03-24T21:40:34.275Z,19.57
2019-03-24T21:43:02.767Z,18.83
2019-03-24T21:45:31.205Z,19.63
2019-03-24T21:47:59.680Z,20.93
2019-03-24T21:50:28.143Z,19.93
2019-03-24T21:52:56.616Z,14.43
2019-03-24T21:55:25.090Z,22.27
2019-03-24T21:57:57.822Z,15.90
2019-03-24T22:00:34.415Z,21.10
2019-03-24T22:03:02.961Z,20.00
2019-03-24T22:05:31.467Z,17.43
2019-03-24T22:07:59.949Z,21.07
2019-03-24T22:10:28.378Z,23.40
2019-03-24T22:12:56.850Z,15.40
2019-03-24T22:15:25.334Z,17.90
2019-03-24T22:17:53.854Z,18.90
2019-03-24T22:20:22.407Z,15.97
2019-03-24T22:22:50.946Z,21.30
2019-03-24T22:25:19.382Z,21.47
2019-03-24T22:27:47.903Z,16.77
2019-03-24T22:30:17.404Z,19.83
2019-03-24T22:32:48.547Z,21.63
2019-03-24T22:35:17.014Z,18.63
2019-03-24T22:37:46.318Z,18.83
2019-03-24T22:40:14.818Z,16.27
2019-03-24T22:42:43.290Z,11.70
2019-03-24T22:45:11.907Z,15.00
2019-03-24T22:47:40.390Z,21.80
2019-03-24T22:50:09.571Z,25.20
2019-03-24T22:52:38.106Z,20.27
2019-03-24T22:55:10.162Z,23.13
2019-03-24T22:57:38.607Z,21.03
2019-03-24T23:00:11.723Z,18.63
2019-03-24T23:02:40.234Z,21.30
2019-03-24T23:05:08.853Z,18.23
2019-03-24T23:07:37.313Z,19.37
2019-03-24T23:10:06.238Z,16.73
2019-03-24T23:12:34.709Z,18.60
2019-03-24T23:15:03.911Z,17.97
2019-03-24T23:17:32.394Z,17.47
2019-03-24T23:20:00.946Z,20.73
2019-03-24T23:22:29.417Z,15.10
2019-03-24T23:24:57.855Z,15.63
2019-03-24T23:27:26.317Z,16.63
2019-03-24T23:29:54.770Z,18.60
2019-03-24T23:32:23.243Z,18.67
2019-03-24T23:34:51.694Z,18.47
2019-03-24T23:37:20.246Z,18.40
2019-03-24T23:39:48.744Z,15.77
2019-03-24T23:42:17.172Z,23.53
2019-03-24T23:44:45.655Z,14.87
2019-03-24T23:47:14.098Z,20.47
2019-03-24T23:49:42.568Z,18.00
2019-03-24T23:52:11.036Z,16.73
2019-03-24T23:54:39.474Z,18.67
2019-03-24T23:57:07.948Z,20.70
2019-03-24T23:59:36.411Z,17.23
